Time;durP1;ratioP1;P1;durP2;ratioP2;P2;SDS_P1;SDS_P2;PMS_P1;PMS_P2;Temp;Humidity;BMP_temperature;BMP_pressure;BME280_temperature;BME280_humidity;BME280_pressure;Samples;Min_cycle;Max_cycle;Signal;HPM_P1;HPM_P2
2021/03/21 05:01:36;;;;;;;7.45;4.25;;;0.30;66.60;;;;;;5599423;22;20145;-86
2021/03/21 05:04:21;;;;;;;6.30;3.80;;;0.30;67.60;;;;;;5003770;28;20411;-86
2021/03/21 05:07:19;;;;;;;7.32;4.60;;;0.30;67.60;;;;;;5015858;28;20050;-86
2021/03/21 05:09:47;;;;;;;8.07;5.13;;;0.30;69.30;;;;;;4966253;28;20530;-86
2021/03/21 05:12:34;;;;;;;4.88;2.92;;;0.30;70.20;;;;;;5009481;28;20038;-87
2021/03/21 05:15:10;;;;;;;6.80;4.72;;;0.40;68.70;;;;;;5022538;28;20047;-86
2021/03/21 05:17:39;;;;;;;6.72;5.03;;;0.40;69.90;;;;;;5022156;28;20101;-86
2021/03/21 05:20:07;;;;;;;6.25;4.97;;;0.40;71.00;;;;;;5022429;28;20094;-87
2021/03/21 05:23:14;;;;;;;3.75;3.15;;;0.50;70.10;;;;;;5004902;28;20042;-86
2021/03/21 05:26:07;;;;;;;7.65;4.32;;;0.40;68.30;;;;;;4965404;28;20113;-86
2021/03/21 05:28:52;;;;;;;4.55;4.15;;;0.40;69.60;;;;;;5014222;28;20592;-86
2021/03/21 05:31:18;;;;;;;7.07;4.22;;;0.40;68.60;;;;;;5026372;28;20053;-86
2021/03/21 05:33:45;;;;;;;5.65;4.30;;;0.40;69.40;;;;;;5027118;28;20050;-86
2021/03/21 05:36:46;;;;;;;8.73;4.72;;;0.40;69.50;;;;;;5010128;28;20039;-86
2021/03/21 05:39:56;;;;;;;6.30;5.10;;;0.40;69.10;;;;;;4996981;28;20058;-86
2021/03/21 05:43:15;;;;;;;3.80;3.38;;;0.50;68.90;;;;;;4967722;28;20048;-85
2021/03/21 05:46:10;;;;;;;6.43;4.28;;;0.50;68.90;;;;;;4964982;28;20040;-87
2021/03/21 05:48:36;;;;;;;8.13;5.35;;;;;;;;;;5019017;28;20551;-86
2021/03/21 05:51:38;;;;;;;8.70;5.65;;;0.50;70.70;;;;;;5026327;28;20089;-85
2021/03/21 05:54:22;;;;;;;6.97;5.03;;;0.70;71.50;;;;;;5023093;28;20086;-85
2021/03/21 05:56:56;;;;;;;6.35;5.18;;;0.70;73.10;;;;;;5007420;28;20518;-86
2021/03/21 05:59:53;;;;;;;9.35;6.20;;;0.70;72.00;;;;;;5031025;28;20061;-85
2021/03/21 06:02:40;;;;;;;8.02;5.78;;;0.80;72.40;;;;;;5012241;28;20054;-85
2021/03/21 06:05:36;;;;;;;5.47;4.78;;;0.90;72.20;;;;;;5011358;28;20034;-86
2021/03/21 06:08:28;;;;;;;6.50;4.90;;;0.90;70.40;;;;;;5005129;28;20043;-86
2021/03/21 06:11:08;;;;;;;;;;;1.00;70.30;;;;;;5013123;28;20057;-87
2021/03/21 06:13:46;;;;;;;8.90;5.22;;;1.00;70.20;;;;;;5000587;28;19922;-88
2021/03/21 06:16:30;;;;;;;6.57;5.03;;;1.10;70.70;;;;;;5002430;28;20050;-88
2021/03/21 06:19:11;;;;;;;8.57;5.65;;;1.20;71.70;;;;;;5008070;28;20039;-87
2021/03/21 06:21:51;;;;;;;6.70;5.15;;;1.30;71.70;;;;;;5011974;28;22474;-88
2021/03/21 06:24:39;;;;;;;5.85;4.50;;;1.20;70.70;;;;;;5005099;28;20074;-86
2021/03/21 06:27:14;;;;;;;8.68;5.25;;;0.90;71.50;;;;;;5011295;28;20055;-86
2021/03/21 06:30:05;;;;;;;5.35;4.38;;;0.80;72.60;;;;;;5002181;28;20554;-85
2021/03/21 06:33:09;;;;;;;7.72;4.97;;;0.80;73.80;;;;;;5007498;28;20039;-90
2021/03/21 06:35:51;;;;;;;8.05;5.15;;;0.80;74.90;;;;;;4981985;28;20558;-87
2021/03/21 06:38:35;;;;;;;;;;;0.90;75.70;;;;;;5008241;28;20029;-87
2021/03/21 06:41:35;;;;;;;5.68;5.15;;;0.90;76.60;;;;;;5009744;28;20412;-87
2021/03/21 06:44:12;;;;;;;6.45;4.72;;;0.90;77.50;;;;;;5002205;28;20513;-87
2021/03/21 06:46:41;;;;;;;7.43;5.35;;;1.10;76.00;;;;;;5007641;28;20589;-87
2021/03/21 06:49:12;;;;;;;8.30;5.53;;;1.30;75.20;;;;;;4990696;28;20043;-87
2021/03/21 06:52:03;;;;;;;7.22;5.68;;;1.60;72.30;;;;;;5001334;28;20047;-86
2021/03/21 06:54:41;;;;;;;7.88;5.95;;;1.60;71.30;;;;;;5007073;28;20114;-87
2021/03/21 06:57:15;;;;;;;8.02;4.75;;;1.70;68.00;;;;;;5007305;28;20043;-86
2021/03/21 06:59:47;;;;;;;6.82;4.72;;;1.70;68.70;;;;;;5002760;28;20654;-86
2021/03/21 07:02:19;;;;;;;9.13;5.68;;;1.70;68.20;;;;;;5006980;28;20054;-86
2021/03/21 07:05:23;;;;;;;6.55;5.32;;;1.80;68.80;;;;;;4984775;28;20047;-86
2021/03/21 07:07:58;;;;;;;7.22;4.97;;;1.90;68.00;;;;;;4990253;28;20043;-86
2021/03/21 07:11:18;;;;;;;10.07;6.55;;;2.20;68.00;;;;;;5005505;28;20415;-86
2021/03/21 07:14:31;;;;;;;6.80;5.07;;;2.50;67.20;;;;;;4991539;28;20054;-87
2021/03/21 07:17:13;;;;;;;5.70;4.65;;;2.40;62.00;;;;;;5005273;28;20039;-86
2021/03/21 07:19:47;;;;;;;4.80;4.28;;;2.20;62.10;;;;;;5019945;28;20070;-86
2021/03/21 07:22:22;;;;;;;6.15;5.20;;;2.10;62.00;;;;;;5007078;28;20046;-87
2021/03/21 07:25:10;;;;;;;5.93;4.20;;;2.10;61.70;;;;;;5029050;28;20046;-86
2021/03/21 07:27:50;;;;;;;6.75;5.50;;;2.20;61.00;;;;;;5005037;28;20047;-87
2021/03/21 07:30:19;;;;;;;5.85;4.63;;;2.20;61.10;;;;;;5008951;28;20949;-86
2021/03/21 07:33:21;;;;;;;5.82;5.07;;;2.20;61.30;;;;;;5029052;28;20029;-86
2021/03/21 07:36:14;;;;;;;5.95;5.30;;;2.20;61.00;;;;;;5029055;28;20046;-87
2021/03/21 07:38:46;;;;;;;5.53;4.60;;;2.20;61.10;;;;;;4998725;28;20070;-87
2021/03/21 07:41:38;;;;;;;6.40;4.90;;;2.30;63.70;;;;;;5009769;28;20043;-88
2021/03/21 07:44:27;;;;;;;7.75;4.90;;;2.40;62.80;;;;;;5011068;28;20058;-87
2021/03/21 07:47:02;;;;;;;6.13;4.72;;;2.40;60.90;;;;;;5011652;28;20794;-87
2021/03/21 07:49:48;;;;;;;6.68;4.50;;;2.40;62.50;;;;;;5021328;28;20022;-86
2021/03/21 07:52:48;;;;;;;4.88;4.20;;;2.30;61.30;;;;;;5027950;28;20053;-87
2021/03/21 07:55:49;;;;;;;6.28;4.20;;;2.30;61.30;;;;;;5023296;28;20046;-87
2021/03/21 07:58:37;;;;;;;5.20;4.40;;;2.30;61.40;;;;;;5020970;28;20054;-86
2021/03/21 08:01:03;;;;;;;4.45;4.03;;;2.60;62.80;;;;;;5015365;28;20054;-86
2021/03/21 08:03:29;;;;;;;5.90;5.07;;;2.80;60.70;;;;;;5012587;28;20043;-86
2021/03/21 08:05:57;;;;;;;6.05;4.32;;;3.00;60.00;;;;;;4992388;28;20926;-86
2021/03/21 08:08:27;;;;;;;4.15;3.75;;;3.20;58.50;;;;;;5008712;28;20066;-86
2021/03/21 08:11:02;;;;;;;8.77;5.38;;;3.10;58.50;;;;;;4991193;28;20053;-86
2021/03/21 08:13:39;;;;;;;6.43;4.78;;;3.20;58.80;;;;;;5008252;28;20058;-86
2021/03/21 08:16:09;;;;;;;6.18;4.85;;;3.50;58.90;;;;;;5007602;28;20050;-87
2021/03/21 08:18:36;;;;;;;6.40;5.18;;;3.90;58.20;;;;;;5009032;28;20047;-87
2021/03/21 08:21:11;;;;;;;5.65;3.95;;;4.10;57.10;;;;;;5008905;28;20051;-86
2021/03/21 08:23:44;;;;;;;6.10;4.65;;;4.00;56.00;;;;;;4999798;28;20418;-86
2021/03/21 08:26:13;;;;;;;5.85;4.30;;;3.80;55.70;;;;;;4988190;28;20533;-86
2021/03/21 08:29:04;;;;;;;6.95;4.90;;;3.90;55.70;;;;;;5008894;28;20045;-86
2021/03/21 08:31:35;;;;;;;6.15;4.60;;;3.70;56.90;;;;;;5008500;28;20047;-87
2021/03/21 08:34:25;;;;;;;9.13;5.45;;;3.90;56.60;;;;;;5000176;28;20050;-86
2021/03/21 08:36:51;;;;;;;6.32;4.78;;;4.00;56.40;;;;;;5007029;28;20035;-87
2021/03/21 08:39:49;;;;;;;6.28;4.97;;;4.10;54.90;;;;;;5004298;28;20050;-86
2021/03/21 08:42:36;;;;;;;5.70;4.70;;;4.30;54.10;;;;;;5002984;28;20129;-86
2021/03/21 08:45:28;;;;;;;8.25;5.30;;;4.40;54.30;;;;;;5020633;28;20022;-86
2021/03/21 08:47:59;;;;;;;;;;;4.60;54.90;;;;;;5017329;28;20031;-87
2021/03/21 08:50:39;;;;;;;6.72;4.95;;;4.80;53.30;;;;;;5022552;28;19926;-85
2021/03/21 08:53:28;;;;;;;6.43;5.03;;;4.80;55.10;;;;;;5023850;28;20086;-86
2021/03/21 08:56:17;;;;;;;6.15;5.55;;;4.90;52.70;;;;;;5022478;28;20094;-87
2021/03/21 08:58:44;;;;;;;5.90;4.88;;;5.00;53.80;;;;;;5021936;28;20043;-87
2021/03/21 09:01:16;;;;;;;6.13;4.80;;;5.20;52.80;;;;;;5018749;28;20051;-87
2021/03/21 09:03:43;;;;;;;6.07;4.97;;;5.00;52.20;;;;;;5015332;28;20035;-88
2021/03/21 09:06:35;;;;;;;6.03;4.20;;;4.90;53.10;;;;;;4988716;28;20039;-87
2021/03/21 09:09:28;;;;;;;6.90;5.15;;;5.00;52.80;;;;;;4993457;28;20058;-88
2021/03/21 09:11:58;;;;;;;7.00;5.28;;;4.80;52.20;;;;;;4998425;28;20102;-87
2021/03/21 09:14:31;;;;;;;5.43;4.78;;;4.70;52.00;;;;;;5006632;28;20930;-88
2021/03/21 09:17:06;;;;;;;6.22;5.38;;;4.90;53.40;;;;;;5006855;28;20043;-87
2021/03/21 09:19:36;;;;;;;7.60;5.07;;;4.90;51.80;;;;;;5007749;28;20042;-87
2021/03/21 09:22:11;;;;;;;6.27;5.47;;;4.70;51.80;;;;;;5008068;28;20041;-87
2021/03/21 09:24:39;;;;;;;6.30;5.10;;;4.50;52.00;;;;;;5011885;28;20094;-87
2021/03/21 09:27:42;;;;;;;6.13;4.78;;;4.40;53.40;;;;;;5011845;28;20098;-86
2021/03/21 09:30:30;;;;;;;6.43;5.68;;;4.40;54.30;;;;;;4922180;29;20479;-88
2021/03/21 09:33:04;;;;;;;6.82;5.43;;;4.30;54.20;;;;;;5004717;28;20074;-87
2021/03/21 09:35:39;;;;;;;5.05;4.22;;;4.30;53.80;;;;;;4995875;28;20491;-87
2021/03/21 09:38:30;;;;;;;5.55;4.38;;;4.20;53.40;;;;;;5009762;28;20041;-87
2021/03/21 09:40:59;;;;;;;6.28;4.78;;;4.10;53.20;;;;;;5010182;28;20047;-87
2021/03/21 09:43:31;;;;;;;5.93;4.93;;;4.10;53.70;;;;;;5006047;28;20047;-87
2021/03/21 09:46:20;;;;;;;6.38;4.45;;;4.20;53.80;;;;;;5003659;28;20389;-87
2021/03/21 09:49:22;;;;;;;6.40;5.10;;;4.20;53.60;;;;;;4992436;28;20051;-87
2021/03/21 09:51:57;;;;;;;7.30;5.40;;;4.40;54.20;;;;;;4986738;28;20051;-87
2021/03/21 09:54:35;;;;;;;5.30;4.40;;;4.60;53.30;;;;;;4995165;28;20038;-87
2021/03/21 09:57:40;;;;;;;7.13;5.10;;;4.80;53.30;;;;;;4982452;28;20046;-87
2021/03/21 10:00:14;;;;;;;6.45;5.10;;;5.10;52.10;;;;;;5004992;28;20049;-87
2021/03/21 10:02:54;;;;;;;6.15;4.95;;;5.10;52.40;;;;;;4995994;28;20058;-87
2021/03/21 10:05:26;;;;;;;9.00;5.40;;;5.00;52.70;;;;;;5005804;28;20058;-87
2021/03/21 10:08:30;;;;;;;5.50;4.40;;;5.00;53.00;;;;;;5001398;28;20483;-88
2021/03/21 10:11:02;;;;;;;7.80;5.78;;;5.10;54.00;;;;;;4961672;28;20901;-87
2021/03/21 10:13:36;;;;;;;6.18;5.43;;;5.30;53.40;;;;;;5005788;28;20039;-88
2021/03/21 10:16:27;;;;;;;5.72;4.88;;;5.30;52.30;;;;;;5007759;28;20830;-87
2021/03/21 10:18:58;;;;;;;7.85;5.93;;;5.30;52.00;;;;;;4992710;28;20053;-88
2021/03/21 10:21:24;;;;;;;6.78;5.50;;;5.20;52.00;;;;;;5006013;28;20043;-88
2021/03/21 10:24:00;;;;;;;6.47;5.10;;;5.20;52.20;;;;;;5005537;28;20051;-88
2021/03/21 10:26:31;;;;;;;6.03;5.30;;;5.30;52.20;;;;;;4992171;28;20043;-87
2021/03/21 10:28:58;;;;;;;;;;;5.20;51.70;;;;;;5008110;28;20043;-88
2021/03/21 10:31:25;;;;;;;6.00;5.15;;;5.30;52.10;;;;;;5015526;28;19945;-88
2021/03/21 10:34:14;;;;;;;4.82;4.43;;;5.30;51.40;;;;;;4988948;28;20105;-87
2021/03/21 10:36:43;;;;;;;6.35;4.93;;;5.30;50.80;;;;;;4981187;28;20781;-87
2021/03/21 10:39:24;;;;;;;5.80;4.78;;;5.10;51.60;;;;;;5007255;28;20046;-87
2021/03/21 10:42:01;;;;;;;6.80;5.20;;;5.00;52.20;;;;;;5002434;28;20058;-86
2021/03/21 10:44:30;;;;;;;7.13;5.82;;;5.10;52.60;;;;;;5006846;28;20046;-87
2021/03/21 10:46:57;;;;;;;6.53;5.20;;;5.10;51.50;;;;;;5006946;28;20431;-86
2021/03/21 10:49:54;;;;;;;7.10;5.13;;;5.20;52.60;;;;;;5007900;28;20050;-87
2021/03/21 10:52:35;;;;;;;7.00;4.90;;;5.30;51.90;;;;;;4999347;28;20074;-87
2021/03/21 10:55:13;;;;;;;6.90;4.68;;;5.40;51.20;;;;;;4991666;28;20050;-87
2021/03/21 10:57:43;;;;;;;7.03;5.35;;;5.70;50.50;;;;;;4992819;28;20559;-87
2021/03/21 11:00:26;;;;;;;8.98;5.72;;;6.10;48.60;;;;;;5008575;28;20051;-87
2021/03/21 11:03:00;;;;;;;5.70;5.10;;;6.00;48.90;;;;;;4988479;28;20054;-87
2021/03/21 11:05:42;;;;;;;5.20;4.70;;;6.10;49.10;;;;;;4984229;28;20040;-87
2021/03/21 11:08:17;;;;;;;7.60;5.28;;;6.10;49.80;;;;;;4989174;28;20509;-87
2021/03/21 11:10:54;;;;;;;5.93;5.32;;;6.00;49.90;;;;;;4989595;28;20091;-87
2021/03/21 11:13:35;;;;;;;7.40;5.10;;;5.90;51.00;;;;;;4988172;28;20086;-87
2021/03/21 11:16:21;;;;;;;6.68;5.28;;;6.10;50.20;;;;;;4987999;28;20092;-88
2021/03/21 11:19:03;;;;;;;6.85;5.75;;;6.20;50.00;;;;;;4966670;28;20090;-87
2021/03/21 11:21:34;;;;;;;6.63;5.47;;;6.00;48.60;;;;;;4991229;28;20507;-87
2021/03/21 11:24:19;;;;;;;6.00;5.35;;;6.10;48.90;;;;;;4989865;28;20099;-86
2021/03/21 11:26:45;;;;;;;6.15;5.53;;;6.10;50.50;;;;;;4979340;28;20042;-86
2021/03/21 11:29:34;;;;;;;5.60;5.05;;;6.40;51.50;;;;;;4971994;28;20043;-86
2021/03/21 11:32:16;;;;;;;6.88;6.05;;;6.60;52.30;;;;;;4973373;28;20724;-87
2021/03/21 11:34:43;;;;;;;;;;;6.80;53.50;;;;;;4982799;28;20035;-88
2021/03/21 11:37:27;;;;;;;6.95;5.30;;;6.80;54.80;;;;;;4997121;28;20621;-86
2021/03/21 11:39:52;;;;;;;7.78;5.60;;;6.90;55.00;;;;;;4989769;28;20130;-87
2021/03/21 11:42:26;;;;;;;7.35;5.88;;;7.00;54.70;;;;;;4990170;28;20471;-87
2021/03/21 11:45:12;;;;;;;6.45;5.65;;;7.20;54.40;;;;;;4972137;28;20046;-87
2021/03/21 11:47:40;;;;;;;8.88;5.97;;;7.20;53.70;;;;;;4986696;28;20047;-88
2021/03/21 11:50:15;;;;;;;5.82;4.93;;;7.30;53.60;;;;;;4973875;28;20071;-88
2021/03/21 11:52:42;;;;;;;7.65;5.30;;;7.40;53.30;;;;;;4963308;28;20046;-84
2021/03/21 11:55:14;;;;;;;6.97;5.50;;;7.50;52.60;;;;;;4991808;28;20050;-84
2021/03/21 11:58:02;;;;;;;5.60;5.00;;;7.40;52.60;;;;;;4989791;28;20051;-85
2021/03/21 12:00:37;;;;;;;7.07;5.78;;;7.50;53.40;;;;;;4989402;28;20039;-84
2021/03/21 12:03:13;;;;;;;7.03;5.53;;;7.30;52.30;;;;;;5008793;28;20054;-84
2021/03/21 12:05:42;;;;;;;7.28;5.65;;;7.30;53.00;;;;;;5001404;28;20094;-85
2021/03/21 12:08:13;;;;;;;7.22;6.03;;;7.40;52.50;;;;;;5008950;28;20035;-84
2021/03/21 12:10:42;;;;;;;7.20;6.05;;;7.40;53.30;;;;;;5011012;28;20047;-85
2021/03/21 12:13:31;;;;;;;6.47;5.50;;;7.40;53.90;;;;;;5002609;28;20041;-85
2021/03/21 12:15:58;;;;;;;7.25;5.70;;;7.30;52.50;;;;;;5007591;28;20073;-85
2021/03/21 12:18:32;;;;;;;6.90;6.18;;;7.30;52.70;;;;;;5009360;28;20070;-86
2021/03/21 12:21:09;;;;;;;10.10;6.97;;;7.10;53.50;;;;;;5006893;28;20070;-89
2021/03/21 12:23:44;;;;;;;7.50;5.80;;;7.20;53.50;;;;;;4981936;28;20035;-88
2021/03/21 12:26:21;;;;;;;7.60;5.53;;;7.20;53.50;;;;;;4988004;28;20042;-89
2021/03/21 12:28:54;;;;;;;6.43;5.45;;;7.10;53.10;;;;;;5008116;28;20133;-87
2021/03/21 12:31:31;;;;;;;6.50;5.80;;;6.60;53.80;;;;;;5007746;28;20031;-87
2021/03/21 12:34:19;;;;;;;7.80;5.72;;;6.50;56.00;;;;;;4977718;28;20056;-88
2021/03/21 12:37:02;;;;;;;5.72;5.10;;;6.50;56.10;;;;;;4988578;28;20071;-88
2021/03/21 12:39:32;;;;;;;6.60;5.38;;;6.70;56.50;;;;;;5010062;28;20045;-88
2021/03/21 12:41:59;;;;;;;7.47;5.30;;;6.80;57.10;;;;;;4993209;28;20039;-89
2021/03/21 12:44:30;;;;;;;4.95;4.43;;;6.90;55.70;;;;;;5006243;28;20035;-89
2021/03/21 12:47:34;;;;;;;6.25;5.10;;;6.90;55.50;;;;;;5004975;28;20042;-86
2021/03/21 12:50:16;;;;;;;4.82;4.38;;;7.00;54.20;;;;;;4989975;28;20141;-87
2021/03/21 12:56:05;;;;;;;5.03;4.15;;;5.90;55.40;;;;;;5027270;28;20034;-87
2021/03/21 12:58:31;;;;;;;5.22;4.63;;;5.90;56.70;;;;;;5034724;28;20046;-88
2021/03/21 13:00:57;;;;;;;5.40;4.78;;;5.30;59.10;;;;;;5009403;28;20034;-87
2021/03/21 13:03:25;;;;;;;6.13;5.30;;;5.30;59.50;;;;;;5015181;28;20093;-87
2021/03/21 13:05:51;;;;;;;6.32;5.00;;;5.10;60.50;;;;;;4993205;28;20042;-87
2021/03/21 13:08:20;;;;;;;6.75;4.93;;;4.90;61.80;;;;;;5025335;28;20038;-88
2021/03/21 13:10:47;;;;;;;6.93;5.15;;;4.90;63.20;;;;;;5010112;28;20019;-90
2021/03/21 13:13:13;;;;;;;6.88;4.80;;;4.90;63.80;;;;;;5016205;28;20033;-87
2021/03/21 13:15:40;;;;;;;7.30;5.35;;;4.80;64.70;;;;;;5011809;28;20042;-87
2021/03/21 13:18:07;;;;;;;6.63;5.60;;;4.80;65.70;;;;;;5006827;28;20035;-87
2021/03/21 13:20:33;;;;;;;7.10;5.78;;;4.50;65.60;;;;;;5012893;28;20042;-87
2021/03/21 13:23:01;;;;;;;6.40;5.18;;;4.20;68.00;;;;;;5026103;28;20407;-88
2021/03/21 13:25:31;;;;;;;7.57;5.32;;;4.30;68.40;;;;;;4988760;28;20054;-87
2021/03/21 13:27:59;;;;;;;9.52;7.25;;;4.30;69.30;;;;;;4997185;28;20478;-89
2021/03/21 13:30:29;;;;;;;7.78;4.82;;;4.40;67.80;;;;;;4988986;28;20151;-89
2021/03/21 13:32:56;;;;;;;9.30;4.88;;;4.50;67.60;;;;;;5008782;28;20042;-88
2021/03/21 13:35:24;;;;;;;11.18;6.15;;;4.60;67.20;;;;;;5012822;28;20047;-89
2021/03/21 13:37:52;;;;;;;7.40;5.88;;;;;;;;;;4986468;28;20043;-90
2021/03/21 13:40:28;;;;;;;7.10;6.00;;;4.70;66.80;;;;;;4999121;28;20074;-89
2021/03/21 13:42:53;;;;;;;9.45;5.50;;;4.80;65.60;;;;;;5008980;28;20073;-88
2021/03/21 13:45:20;;;;;;;9.10;6.28;;;4.70;66.30;;;;;;4988833;28;20043;-88
2021/03/21 13:47:46;;;;;;;7.63;5.13;;;;;;;;;;5001730;28;20106;-90
2021/03/21 13:50:13;;;;;;;6.18;5.57;;;4.50;67.00;;;;;;5010885;28;20053;-90
2021/03/21 13:52:40;;;;;;;5.97;5.38;;;4.50;66.50;;;;;;5015540;28;20041;-88
2021/03/21 13:55:07;;;;;;;7.72;5.45;;;4.50;66.00;;;;;;5006439;28;20055;-87
2021/03/21 13:57:33;;;;;;;6.43;5.40;;;4.60;66.10;;;;;;5000344;28;20043;-86
2021/03/21 13:59:59;;;;;;;6.75;6.15;;;4.60;67.00;;;;;;5025486;28;20545;-88
2021/03/21 14:02:25;;;;;;;7.35;4.55;;;4.70;68.10;;;;;;5032900;28;20097;-85
2021/03/21 14:04:51;;;;;;;7.43;4.95;;;4.70;69.90;;;;;;5014764;28;20093;-85
2021/03/21 14:07:16;;;;;;;6.50;5.13;;;4.50;69.50;;;;;;5012630;28;20055;-85
2021/03/21 14:09:42;;;;;;;7.80;4.85;;;4.40;70.20;;;;;;5013721;28;20439;-86
2021/03/21 14:12:08;;;;;;;5.47;4.63;;;4.40;72.30;;;;;;5014244;28;20043;-86
2021/03/21 14:14:34;;;;;;;5.65;4.90;;;4.20;71.80;;;;;;5023083;28;20038;-87
2021/03/21 14:17:00;;;;;;;6.93;5.15;;;4.10;73.60;;;;;;5032798;28;20038;-86
2021/03/21 14:19:25;;;;;;;5.85;4.65;;;4.10;74.90;;;;;;5032368;28;20046;-86
2021/03/21 14:21:51;;;;;;;5.72;4.25;;;4.10;75.30;;;;;;5014666;28;20058;-85
2021/03/21 14:24:17;;;;;;;5.63;4.40;;;4.00;73.90;;;;;;5015480;28;20071;-86
2021/03/21 14:26:42;;;;;;;7.25;4.72;;;3.90;76.10;;;;;;5014226;28;20562;-86
2021/03/21 14:29:08;;;;;;;20.17;9.43;;;3.90;76.40;;;;;;5011424;28;20129;-86
2021/03/21 14:31:34;;;;;;;10.40;6.70;;;3.90;75.70;;;;;;5011577;28;20038;-85
2021/03/21 14:34:00;;;;;;;6.47;4.55;;;3.80;76.70;;;;;;5012161;28;20050;-85
2021/03/21 14:36:26;;;;;;;6.45;4.78;;;;;;;;;;4987216;28;20046;-86
2021/03/21 14:38:52;;;;;;;7.80;5.65;;;3.70;77.80;;;;;;4993796;28;20055;-84
2021/03/21 14:41:18;;;;;;;7.70;5.32;;;3.80;80.40;;;;;;5011582;28;20046;-85
2021/03/21 14:43:45;;;;;;;7.22;5.28;;;3.70;79.60;;;;;;5012221;28;20085;-86
2021/03/21 14:46:11;;;;;;;7.28;5.80;;;3.80;81.00;;;;;;5004805;28;20055;-85
2021/03/21 14:48:36;;;;;;;8.13;5.53;;;3.80;82.20;;;;;;5011364;28;20110;-86
2021/03/21 14:51:03;;;;;;;10.27;5.28;;;3.80;82.70;;;;;;5012184;28;20035;-84
2021/03/21 14:53:29;;;;;;;6.20;5.05;;;3.70;82.40;;;;;;5010309;28;20483;-84
2021/03/21 14:55:55;;;;;;;6.13;5.07;;;3.60;84.40;;;;;;5006488;28;20530;-85
2021/03/21 14:58:25;;;;;;;6.78;5.82;;;3.60;83.80;;;;;;4990749;28;20051;-85
2021/03/21 15:00:53;;;;;;;5.97;4.97;;;3.60;85.60;;;;;;5015883;28;20110;-85
2021/03/21 15:03:19;;;;;;;7.80;5.50;;;3.70;86.90;;;;;;5006285;28;20070;-87
2021/03/21 15:05:46;;;;;;;7.78;5.38;;;3.70;85.60;;;;;;5018420;28;20854;-86
2021/03/21 15:08:21;;;;;;;7.13;4.75;;;3.80;85.90;;;;;;5017359;28;20031;-85
2021/03/21 15:10:48;;;;;;;7.43;5.20;;;3.90;86.80;;;;;;5012147;28;20042;-85
2021/03/21 15:13:15;;;;;;;5.15;4.65;;;3.90;85.80;;;;;;5011404;28;20055;-85
2021/03/21 15:15:44;;;;;;;8.43;5.05;;;3.90;87.20;;;;;;5024650;28;20499;-85
2021/03/21 15:18:12;;;;;;;7.13;5.13;;;3.80;88.00;;;;;;5024779;28;20046;-85
2021/03/21 15:20:41;;;;;;;8.05;5.22;;;3.80;88.80;;;;;;5030010;28;20119;-85
2021/03/21 15:23:09;;;;;;;6.03;4.68;;;4.00;89.70;;;;;;5019356;28;20054;-86
2021/03/21 15:25:38;;;;;;;7.22;4.88;;;4.00;86.90;;;;;;5031953;28;20038;-85
2021/03/21 15:28:05;;;;;;;6.28;5.47;;;3.90;87.60;;;;;;5030540;28;20035;-85
2021/03/21 15:30:32;;;;;;;7.75;5.45;;;3.90;88.70;;;;;;4996263;28;20122;-85
2021/03/21 15:32:59;;;;;;;6.43;4.55;;;4.10;89.80;;;;;;5014245;28;20035;-85
2021/03/21 15:35:27;;;;;;;8.85;5.25;;;4.00;87.70;;;;;;5023675;28;20043;-84
2021/03/21 15:37:53;;;;;;;8.32;6.25;;;4.00;87.90;;;;;;5011287;28;20422;-85
2021/03/21 15:40:21;;;;;;;7.57;6.03;;;4.10;87.80;;;;;;5011288;28;20047;-85
2021/03/21 15:42:47;;;;;;;5.97;4.50;;;4.20;87.80;;;;;;5011311;28;20051;-86
2021/03/21 15:45:14;;;;;;;5.47;4.97;;;4.30;86.40;;;;;;5012869;28;20058;-85
2021/03/21 15:47:39;;;;;;;6.93;4.68;;;4.10;86.50;;;;;;5009420;28;20078;-85
2021/03/21 15:50:06;;;;;;;6.13;5.15;;;4.20;87.10;;;;;;5006512;28;20853;-84
2021/03/21 15:52:32;;;;;;;9.38;6.88;;;4.20;85.80;;;;;;5009982;28;20049;-86
2021/03/21 15:54:57;;;;;;;5.53;4.30;;;4.10;85.20;;;;;;5011306;28;20039;-86
2021/03/21 15:57:23;;;;;;;6.72;5.00;;;4.10;86.20;;;;;;5010547;28;20054;-85
2021/03/21 15:59:49;;;;;;;7.22;5.93;;;4.10;85.30;;;;;;5009974;28;20045;-86
2021/03/21 16:02:14;;;;;;;6.43;5.15;;;4.10;85.60;;;;;;5004668;28;20086;-85
2021/03/21 16:04:40;;;;;;;7.13;4.97;;;4.20;85.70;;;;;;5009764;28;20479;-85
2021/03/21 16:07:06;;;;;;;6.93;5.10;;;4.30;85.30;;;;;;5009019;28;20070;-85
2021/03/21 16:09:32;;;;;;;7.18;5.55;;;4.40;85.40;;;;;;5009588;28;20039;-86
2021/03/21 16:11:59;;;;;;;5.78;4.80;;;4.50;84.30;;;;;;5009948;28;20035;-86
2021/03/21 16:14:24;;;;;;;9.38;5.22;;;4.60;84.20;;;;;;5009885;28;20039;-85
2021/03/21 16:16:50;;;;;;;5.93;4.72;;;4.50;84.20;;;;;;5008332;28;20055;-85
2021/03/21 16:19:16;;;;;;;5.82;4.90;;;4.40;84.60;;;;;;5009847;28;20139;-85
2021/03/21 16:21:47;;;;;;;6.00;4.32;;;4.40;85.90;;;;;;5008854;28;20049;-86
2021/03/21 16:24:14;;;;;;;5.55;4.80;;;4.40;85.10;;;;;;5010945;28;20047;-85
2021/03/21 16:26:40;;;;;;;9.40;5.13;;;4.40;85.60;;;;;;5008055;28;20110;-85
2021/03/21 16:29:06;;;;;;;6.82;5.50;;;4.30;86.30;;;;;;5009564;28;20049;-85
2021/03/21 16:31:32;;;;;;;7.05;5.10;;;4.20;86.50;;;;;;5009048;28;20049;-86
2021/03/21 16:33:57;;;;;;;5.75;4.68;;;4.20;86.40;;;;;;5009417;28;20403;-86
2021/03/21 16:36:23;;;;;;;8.82;5.05;;;4.20;87.20;;;;;;5009430;28;20050;-85
2021/03/21 16:38:53;;;;;;;8.07;5.07;;;4.20;85.80;;;;;;5002087;28;20043;-86
2021/03/21 16:41:19;;;;;;;7.75;5.43;;;4.30;85.30;;;;;;5009563;28;20038;-86
2021/03/21 16:43:46;;;;;;;7.35;4.72;;;4.30;86.00;;;;;;5008919;28;20049;-86
2021/03/21 16:46:12;;;;;;;5.82;4.72;;;4.40;85.60;;;;;;5010195;28;20169;-86
2021/03/21 16:48:38;;;;;;;5.03;4.50;;;4.40;85.80;;;;;;5010478;28;20042;-85
2021/03/21 16:51:05;;;;;;;6.57;5.03;;;4.30;85.80;;;;;;5009977;28;20069;-85
2021/03/21 16:53:31;;;;;;;9.00;5.38;;;4.20;85.60;;;;;;4991971;28;20039;-85
2021/03/21 16:55:57;;;;;;;19.25;8.88;;;4.10;86.30;;;;;;5009353;28;20751;-86
2021/03/21 16:58:22;;;;;;;10.02;6.28;;;4.10;87.20;;;;;;5009385;28;20121;-86
2021/03/21 17:00:48;;;;;;;9.23;6.22;;;4.00;88.40;;;;;;5008707;28;20590;-86
2021/03/21 17:03:14;;;;;;;7.32;5.10;;;3.90;88.20;;;;;;5007673;28;20123;-88
2021/03/21 17:05:41;;;;;;;6.80;5.03;;;3.90;90.00;;;;;;5012040;28;20062;-91
2021/03/21 17:08:07;;;;;;;7.05;5.15;;;4.00;90.70;;;;;;5028989;28;20088;-89
2021/03/21 17:10:36;;;;;;;8.00;5.25;;;3.90;89.70;;;;;;4993131;28;20125;-88
2021/03/21 17:13:02;;;;;;;6.88;4.63;;;;;;;;;;4975229;28;20030;-90
2021/03/21 17:15:31;;;;;;;8.15;4.70;;;3.90;90.10;;;;;;4992438;28;20054;-89
2021/03/21 17:17:57;;;;;;;6.90;5.18;;;3.90;90.30;;;;;;5009446;28;20512;-88
2021/03/21 17:20:25;;;;;;;6.57;5.05;;;3.90;90.10;;;;;;5013283;28;20058;-89
2021/03/21 17:22:52;;;;;;;9.60;5.35;;;3.90;91.20;;;;;;4997316;28;20039;-89
2021/03/21 17:25:20;;;;;;;5.80;5.07;;;3.90;90.80;;;;;;4994605;28;20077;-89
2021/03/21 17:27:45;;;;;;;6.85;4.88;;;3.90;90.60;;;;;;4996022;28;20039;-90
2021/03/21 17:30:16;;;;;;;8.00;5.53;;;3.90;91.90;;;;;;5010375;28;20054;-89
2021/03/21 17:32:42;;;;;;;8.77;5.45;;;3.80;92.20;;;;;;4998821;28;20905;-89
2021/03/21 17:35:09;;;;;;;9.10;6.78;;;3.70;93.40;;;;;;4995664;28;20056;-88
2021/03/21 17:37:35;;;;;;;9.55;7.43;;;;;;;;;;5011309;28;20050;-89
2021/03/21 17:40:02;;;;;;;11.63;7.32;;;;;;;;;;5005837;28;20043;-90
2021/03/21 17:42:28;;;;;;;10.00;7.03;;;;;;;;;;4997470;28;20050;-91
2021/03/21 17:44:54;;;;;;;11.18;6.93;;;;;;;;;;5009915;28;20561;-89
2021/03/21 17:47:20;;;;;;;13.15;7.35;;;3.60;95.30;;;;;;5008969;28;20035;-90
2021/03/21 17:49:53;;;;;;;9.15;6.88;;;3.60;96.10;;;;;;4993077;28;20047;-90
2021/03/21 17:52:21;;;;;;;8.95;6.18;;;;;;;;;;5005306;28;20039;-91
2021/03/21 17:54:47;;;;;;;7.20;6.00;;;3.40;95.70;;;;;;4978812;28;20050;-89
2021/03/21 17:57:14;;;;;;;7.95;5.85;;;3.40;96.60;;;;;;5011366;28;20459;-90
2021/03/21 17:59:41;;;;;;;11.80;6.75;;;;;;;;;;5008263;28;20038;-90
2021/03/21 18:02:15;;;;;;;9.93;6.72;;;3.30;97.30;;;;;;5008350;28;20523;-90
2021/03/21 18:04:43;;;;;;;9.85;6.60;;;3.40;97.10;;;;;;5007714;28;20105;-90
2021/03/21 18:07:10;;;;;;;9.93;6.55;;;3.40;97.50;;;;;;4990713;28;20043;-90
2021/03/21 18:09:39;;;;;;;11.50;6.70;;;;;;;;;;5010804;28;20065;-90
2021/03/21 18:12:08;;;;;;;9.35;6.55;;;3.30;98.20;;;;;;5011790;28;20039;-89
2021/03/21 18:14:36;;;;;;;11.57;6.97;;;3.30;99.10;;;;;;5009908;28;20038;-89
2021/03/21 18:17:10;;;;;;;8.73;6.38;;;3.20;99.80;;;;;;5016375;28;20754;-87
2021/03/21 18:19:36;;;;;;;8.80;6.60;;;3.20;99.90;;;;;;5022745;28;20047;-87
2021/03/21 18:22:07;;;;;;;10.38;7.00;;;2.70;99.90;;;;;;5006901;28;20042;-86
2021/03/21 18:24:35;;;;;;;10.57;6.45;;;;;;;;;;5018415;28;20042;-86
2021/03/21 18:27:56;;;;;;;13.52;7.93;;;3.10;99.90;;;;;;5022724;28;20042;-87
2021/03/21 18:30:34;;;;;;;11.80;7.80;;;3.00;99.90;;;;;;4994403;28;20082;-90
2021/03/21 18:33:03;;;;;;;12.65;8.10;;;2.90;99.90;;;;;;5026636;28;20058;-87
2021/03/21 18:35:29;;;;;;;9.90;7.45;;;2.90;99.90;;;;;;5029467;28;20054;-87
2021/03/21 18:37:55;;;;;;;13.57;8.00;;;2.90;99.90;;;;;;5017555;28;20063;-87
2021/03/21 18:40:23;;;;;;;11.65;7.72;;;2.90;99.90;;;;;;4996495;28;20046;-87
2021/03/21 18:42:50;;;;;;;13.55;7.40;;;3.00;99.90;;;;;;5028300;28;20070;-88